Hauptseite
METAR-TAF:

METAR-TAF

Flughäfen :

Flughafen Linz

Linz, Österreich

Breite: 48-14N, Länge: 014-11E, Höhe: 298 m

Beobachtung

Neuester Wetterbericht von vor 38 Minuten, um 20:50 UTC
Wind 4 kt aus Süd/Südwest
Temperatur 6°C
Luftfeuchtigkeit 61%
Luftdruck 1019 hPa
Sichtweite 10 km oder mehr
Durchbrochene Bewölkung in der Höhe von 8000 ft

METAR: LOWL 032050Z AUTO 20004KT 9999 BKN080 06/M01 Q1019 NOSIG

Zeit: 23:28 (21:28 UTC)

Prognose

Neuester Wetterbericht von vor 4 Stunden und 13 Minuten, um 17:15 UTC
Gültige Prognose vom 03 um 18 UTC bis 04 um 18 UTC
Wind 3 kt aus West/Nordwest
Sichtweite 10 km oder mehr
Durchbrochene Bewölkung in der Höhe von 7000 ft
Übergehend zu
vom 04 um 12 UTC bis 04 um 14 UTC
Wind 4 kt aus Ost
Sichtweite 10 km oder mehr
keine Wolken unter 1500 m und keine Kumulonimbus oder Gewitterwolken

TAF: LOWL 031715Z 0318/0418 30003KT 9999 BKN070 TX13/0415Z TN02/0404Z BECMG 0412/0414 08004KT CAVOK

Wetterbeobachtungen und Prognosen von mehr als 4000 Flughäfen (METAR und TAF Bericht).

Die verfügbaren Stationen werden durch gelbe und rote Markierungen auf der Karte dargestellt.

Führen Sie die Maus auf sie, um den Namen der Station zu sehen.

Darauf klicken, um die Beobachtung von Wetterbeobachtungen und Prognosen zu sehen.

Um die Karte zu ändern : klicken Sie auf den grünen Tasten mit einem schwarzen Kreuz Zum Vergrößern, auf den grünen Button mit einem Gedankenstrich zu verkleinern, oder auf die grünen Pfeile für benachbarte Karten.


METAR-TAF: